Time,TemperatureF,DewpointF,PressureIn,WindDirection,WindDirectionDegrees,WindSpeedMPH,WindSpeedGustMPH,Humidity,HourlyPrecipIn,Conditions,Clouds,dailyrainin,SolarRadiationWatts/m^2,SoftwareType,DateUTC
2013-03-09 00:01:00,40.0,39.0,-100.00,North,354,3.0,7.0,95,0.00,,,0.00,0.000000,,2013-03-09 08:01:00,
2013-03-09 00:11:00,40.0,39.0,-100.00,North,354,3.0,7.0,95,0.00,,,0.00,0.000000,,2013-03-09 08:11:00,
2013-03-09 00:42:00,40.0,39.0,-100.00,North,7,3.0,4.0,96,0.00,,,-99.99,0.000000,,2013-03-09 08:42:00,
2013-03-09 00:52:00,40.0,39.0,-100.00,North,7,3.0,4.0,96,0.00,,,-99.99,0.000000,,2013-03-09 08:52:00,
2013-03-09 01:01:00,40.0,39.0,-100.00,North,7,3.0,4.0,96,0.00,,,-99.99,0.000000,,2013-03-09 09:01:00,
2013-03-09 01:11:00,40.0,39.0,-100.00,North,7,3.0,4.0,96,0.00,,,-99.99,0.000000,,2013-03-09 09:11:00,
2013-03-09 01:32:00,40.0,39.0,-100.00,NW,321,3.0,5.0,97,0.00,,,0.00,0.000000,,2013-03-09 09:32:00,
2013-03-09 01:42:00,40.0,39.0,-100.00,NW,321,3.0,5.0,97,0.00,,,0.00,0.000000,,2013-03-09 09:42:00,
2013-03-09 01:52:00,40.0,39.0,-100.00,NW,321,3.0,5.0,97,0.00,,,0.00,0.000000,,2013-03-09 09:52:00,
2013-03-09 02:01:00,40.0,39.0,-100.00,NW,321,3.0,5.0,97,0.00,,,0.00,0.000000,,2013-03-09 10:01:00,
2013-03-09 02:11:00,40.0,39.0,-100.00,NW,321,3.0,5.0,97,0.00,,,0.00,0.000000,,2013-03-09 10:11:00,
2013-03-09 02:42:00,39.0,38.0,-100.00,NNE,22,3.0,5.0,97,0.00,,,0.00,0.000000,,2013-03-09 10:42:00,
2013-03-09 02:52:00,39.0,38.0,-100.00,NNE,22,3.0,5.0,97,0.00,,,0.00,0.000000,,2013-03-09 10:52:00,
2013-03-09 03:01:00,39.0,38.0,-100.00,NNE,22,3.0,5.0,97,0.00,,,0.00,0.000000,,2013-03-09 11:01:00,
2013-03-09 03:11:00,39.0,38.0,-100.00,NNE,22,3.0,5.0,97,0.00,,,0.00,0.000000,,2013-03-09 11:11:00,
2013-03-09 03:32:00,40.0,39.0,-100.00,ESE,107,4.0,8.0,96,0.00,,,0.00,0.000000,,2013-03-09 11:32:00,
2013-03-09 03:42:00,40.0,39.0,-100.00,ESE,107,4.0,8.0,96,0.00,,,0.00,0.000000,,2013-03-09 11:42:00,
2013-03-09 03:52:00,40.0,39.0,-100.00,ESE,107,4.0,8.0,96,0.00,,,0.00,0.000000,,2013-03-09 11:52:00,
2013-03-09 04:01:00,40.0,39.0,-100.00,ESE,107,4.0,8.0,96,0.00,,,0.00,0.000000,,2013-03-09 12:01:00,
2013-03-09 04:11:00,40.0,39.0,-100.00,ESE,107,4.0,8.0,96,0.00,,,0.00,0.000000,,2013-03-09 12:11:00,
2013-03-09 04:32:00,39.0,38.0,-100.00,ESE,120,8.0,11.0,96,0.00,,,0.00,0.000000,,2013-03-09 12:32:00,
2013-03-09 04:42:00,39.0,38.0,-100.00,ESE,120,8.0,11.0,96,0.00,,,0.00,0.000000,,2013-03-09 12:42:00,
2013-03-09 04:52:00,39.0,38.0,-100.00,ESE,120,8.0,11.0,96,0.00,,,0.00,0.000000,,2013-03-09 12:52:00,
2013-03-09 05:02:00,39.0,38.0,-100.00,ESE,120,8.0,11.0,96,0.00,,,0.00,0.000000,,2013-03-09 13:02:00,
2013-03-09 05:11:00,39.0,38.0,-100.00,ESE,120,8.0,11.0,96,0.00,,,0.00,0.000000,,2013-03-09 13:11:00,
2013-03-09 05:32:00,38.0,37.0,-100.00,SSE,150,7.0,17.0,98,0.00,,,0.00,0.000000,,2013-03-09 13:32:00,
2013-03-09 05:42:00,38.0,37.0,-100.00,SSE,150,7.0,17.0,98,0.00,,,0.00,0.000000,,2013-03-09 13:42:00,
2013-03-09 05:52:00,38.0,37.0,-100.00,SSE,150,7.0,17.0,98,0.00,,,0.00,0.000000,,2013-03-09 13:52:00,
2013-03-09 06:01:00,38.0,37.0,-100.00,SSE,150,7.0,17.0,98,0.00,,,0.00,0.000000,,2013-03-09 14:01:00,
2013-03-09 06:11:00,38.0,37.0,-100.00,SSE,150,7.0,17.0,98,0.00,,,0.00,0.000000,,2013-03-09 14:11:00,
2013-03-09 06:32:00,40.0,39.0,-100.00,SE,125,4.0,8.0,96,0.00,,,0.00,0.000000,,2013-03-09 14:32:00,
2013-03-09 06:42:00,40.0,39.0,-100.00,SE,125,4.0,8.0,96,0.00,,,0.00,0.000000,,2013-03-09 14:42:00,
2013-03-09 06:52:00,40.0,39.0,-100.00,SE,125,4.0,8.0,96,0.00,,,0.00,0.000000,,2013-03-09 14:52:00,
2013-03-09 07:01:00,40.0,39.0,-100.00,SE,125,4.0,8.0,96,0.00,,,0.00,0.000000,,2013-03-09 15:01:00,
2013-03-09 07:11:00,40.0,39.0,-100.00,SE,125,4.0,8.0,96,0.00,,,0.00,0.000000,,2013-03-09 15:11:00,
2013-03-09 07:32:00,38.0,37.0,-100.00,WNW,299,4.0,8.0,96,0.00,,,0.00,23.000000,,2013-03-09 15:32:00,
2013-03-09 07:42:00,38.0,37.0,-100.00,WNW,299,4.0,8.0,96,0.00,,,0.00,23.000000,,2013-03-09 15:42:00,
2013-03-09 07:52:00,38.0,37.0,-100.00,WNW,299,4.0,8.0,96,0.00,,,0.00,23.000000,,2013-03-09 15:52:00,
2013-03-09 08:01:00,38.0,37.0,-100.00,WNW,299,4.0,8.0,96,0.00,,,0.00,23.000000,,2013-03-09 16:01:00,
2013-03-09 08:11:00,38.0,37.0,-100.00,WNW,299,4.0,8.0,96,0.00,,,0.00,23.000000,,2013-03-09 16:11:00,
2013-03-09 08:32:00,39.0,38.0,-100.00,WNW,291,4.0,16.0,98,0.00,,,0.00,83.000000,,2013-03-09 16:32:00,
2013-03-09 08:42:00,39.0,38.0,-100.00,WNW,291,4.0,16.0,98,0.00,,,0.00,83.000000,,2013-03-09 16:42:00,
2013-03-09 08:52:00,39.0,38.0,-100.00,WNW,291,4.0,16.0,98,0.00,,,0.00,83.000000,,2013-03-09 16:52:00,
2013-03-09 09:01:00,39.0,38.0,-100.00,WNW,291,4.0,16.0,98,0.00,,,0.00,83.000000,,2013-03-09 17:01:00,
2013-03-09 09:11:00,39.0,38.0,-100.00,WNW,291,4.0,16.0,98,0.00,,,0.00,83.000000,,2013-03-09 17:11:00,
2013-03-09 09:32:00,40.0,39.0,-100.00,North,5,3.0,8.0,96,0.00,,,0.00,165.000000,,2013-03-09 17:32:00,
2013-03-09 09:42:00,40.0,39.0,-100.00,North,5,3.0,8.0,96,0.00,,,0.00,165.000000,,2013-03-09 17:42:00,
2013-03-09 09:52:00,40.0,39.0,-100.00,North,5,3.0,8.0,96,0.00,,,0.00,165.000000,,2013-03-09 17:52:00,
2013-03-09 10:01:00,40.0,39.0,-100.00,North,5,3.0,8.0,96,0.00,,,0.00,165.000000,,2013-03-09 18:01:00,
2013-03-09 10:11:00,40.0,39.0,-100.00,North,5,3.0,8.0,96,0.00,,,0.00,165.000000,,2013-03-09 18:11:00,
2013-03-09 10:32:00,45.0,43.0,-100.00,SE,129,7.0,10.0,91,0.00,,,0.00,377.000000,,2013-03-09 18:32:00,
2013-03-09 10:42:00,45.0,43.0,-100.00,SE,129,7.0,10.0,91,0.00,,,0.00,377.000000,,2013-03-09 18:42:00,
2013-03-09 10:52:00,45.0,43.0,-100.00,SE,129,7.0,10.0,91,0.00,,,0.00,377.000000,,2013-03-09 18:52:00,
2013-03-09 11:01:00,45.0,43.0,-100.00,SE,129,7.0,10.0,91,0.00,,,0.00,377.000000,,2013-03-09 19:01:00,
2013-03-09 11:11:00,45.0,43.0,-100.00,SE,129,7.0,10.0,91,0.00,,,0.00,377.000000,,2013-03-09 19:11:00,
2013-03-09 11:42:00,52.0,42.0,-100.00,ESE,107,6.0,10.0,69,0.00,,,0.00,633.000000,,2013-03-09 19:42:00,
2013-03-09 11:52:00,52.0,42.0,-100.00,ESE,107,6.0,10.0,69,0.00,,,0.00,633.000000,,2013-03-09 19:52:00,
2013-03-09 12:01:00,52.0,42.0,-100.00,ESE,107,6.0,10.0,69,0.00,,,0.00,633.000000,,2013-03-09 20:01:00,
2013-03-09 12:11:00,52.0,42.0,-100.00,ESE,107,6.0,10.0,69,0.00,,,0.00,633.000000,,2013-03-09 20:11:00,
2013-03-09 12:32:00,57.0,42.0,-100.00,NNE,25,3.0,10.0,58,0.00,,,0.00,689.000000,,2013-03-09 20:32:00,
2013-03-09 12:42:00,57.0,42.0,-100.00,NNE,25,3.0,10.0,58,0.00,,,0.00,689.000000,,2013-03-09 20:42:00,
2013-03-09 12:52:00,57.0,42.0,-100.00,NNE,25,3.0,10.0,58,0.00,,,0.00,689.000000,,2013-03-09 20:52:00,
2013-03-09 13:01:00,57.0,42.0,-100.00,NNE,25,3.0,10.0,58,0.00,,,0.00,689.000000,,2013-03-09 21:01:00,
2013-03-09 13:11:00,57.0,42.0,-100.00,NNE,25,3.0,10.0,58,0.00,,,0.00,689.000000,,2013-03-09 21:11:00,
2013-03-09 13:32:00,61.0,40.0,-100.00,East,90,4.0,9.0,45,0.00,,,0.00,764.000000,,2013-03-09 21:32:00,
2013-03-09 13:42:00,61.0,40.0,-100.00,East,90,4.0,9.0,45,0.00,,,0.00,764.000000,,2013-03-09 21:42:00,
2013-03-09 13:52:00,61.0,40.0,-100.00,East,90,4.0,9.0,45,0.00,,,0.00,764.000000,,2013-03-09 21:52:00,
2013-03-09 14:01:00,61.0,40.0,-100.00,East,90,4.0,9.0,45,0.00,,,0.00,764.000000,,2013-03-09 22:01:00,
2013-03-09 14:11:00,61.0,40.0,-100.00,East,90,4.0,9.0,45,0.00,,,0.00,764.000000,,2013-03-09 22:11:00,
2013-03-09 14:42:00,60.0,38.0,-100.00,NW,314,7.0,13.0,44,0.00,,,0.00,709.000000,,2013-03-09 22:42:00,
2013-03-09 14:52:00,60.0,38.0,-100.00,NW,314,7.0,13.0,44,0.00,,,0.00,709.000000,,2013-03-09 22:52:00,
2013-03-09 15:01:00,60.0,38.0,-100.00,NW,314,7.0,13.0,44,0.00,,,0.00,709.000000,,2013-03-09 23:01:00,
2013-03-09 15:11:00,60.0,38.0,-100.00,NW,314,7.0,13.0,44,0.00,,,0.00,709.000000,,2013-03-09 23:11:00,
2013-03-09 15:32:00,61.0,37.0,-100.00,NNW,345,5.0,12.0,41,0.00,,,0.00,592.000000,,2013-03-09 23:32:00,
2013-03-09 15:42:00,61.0,37.0,-100.00,NNW,345,5.0,12.0,41,0.00,,,0.00,592.000000,,2013-03-09 23:42:00,
2013-03-09 15:52:00,61.0,37.0,-100.00,NNW,345,5.0,12.0,41,0.00,,,0.00,592.000000,,2013-03-09 23:52:00,
2013-03-09 16:01:00,61.0,37.0,-100.00,NNW,345,5.0,12.0,41,0.00,,,0.00,592.000000,,2013-03-10 00:01:00,
2013-03-09 16:11:00,61.0,37.0,-100.00,NNW,345,5.0,12.0,41,0.00,,,0.00,592.000000,,2013-03-10 00:11:00,
2013-03-09 16:32:00,59.0,38.0,-100.00,NW,319,11.0,14.0,45,0.00,,,0.00,438.000000,,2013-03-10 00:32:00,
2013-03-09 16:43:00,59.0,38.0,-100.00,NW,319,11.0,14.0,45,0.00,,,0.00,438.000000,,2013-03-10 00:43:00,
2013-03-09 16:52:00,59.0,38.0,-100.00,NW,319,11.0,14.0,45,0.00,,,0.00,438.000000,,2013-03-10 00:52:00,
2013-03-09 17:01:00,59.0,38.0,-100.00,NW,319,11.0,14.0,45,0.00,,,0.00,438.000000,,2013-03-10 01:01:00,
2013-03-09 17:11:00,59.0,38.0,-100.00,NW,319,11.0,14.0,45,0.00,,,0.00,438.000000,,2013-03-10 01:11:00,
2013-03-09 17:32:00,54.0,37.0,-100.00,NW,316,12.0,18.0,53,0.00,,,-99.99,211.000000,,2013-03-10 01:32:00,
2013-03-09 17:42:00,54.0,37.0,-100.00,NW,316,12.0,18.0,53,0.00,,,-99.99,211.000000,,2013-03-10 01:42:00,
2013-03-09 17:52:00,54.0,37.0,-100.00,NW,316,12.0,18.0,53,0.00,,,-99.99,211.000000,,2013-03-10 01:52:00,
2013-03-09 18:01:00,54.0,37.0,-100.00,NW,316,12.0,18.0,53,0.00,,,-99.99,211.000000,,2013-03-10 02:01:00,
2013-03-09 18:11:00,54.0,37.0,-100.00,NW,316,12.0,18.0,53,0.00,,,-99.99,211.000000,,2013-03-10 02:11:00,
2013-03-09 18:42:00,49.0,40.0,-100.00,NW,316,8.0,14.0,72,0.00,,,-99.99,40.000000,,2013-03-10 02:42:00,
2013-03-09 18:52:00,49.0,40.0,-100.00,NW,316,8.0,14.0,72,0.00,,,-99.99,40.000000,,2013-03-10 02:52:00,
2013-03-09 19:01:00,49.0,40.0,-100.00,NW,316,8.0,14.0,72,0.00,,,-99.99,40.000000,,2013-03-10 03:01:00,
2013-03-09 19:11:00,49.0,40.0,-100.00,NW,316,8.0,14.0,72,0.00,,,-99.99,40.000000,,2013-03-10 03:11:00,
2013-03-09 19:32:00,46.0,37.0,-100.00,NW,307,8.0,12.0,71,0.00,,,0.00,1.000000,,2013-03-10 03:32:00,
2013-03-09 19:42:00,46.0,37.0,-100.00,NW,307,8.0,12.0,71,0.00,,,0.00,1.000000,,2013-03-10 03:42:00,
2013-03-09 19:52:00,46.0,37.0,-100.00,NW,307,8.0,12.0,71,0.00,,,0.00,1.000000,,2013-03-10 03:52:00,
2013-03-09 20:01:00,46.0,37.0,-100.00,NW,307,8.0,12.0,71,0.00,,,0.00,1.000000,,2013-03-10 04:01:00,
2013-03-09 20:11:00,46.0,37.0,-100.00,NW,307,8.0,12.0,71,0.00,,,0.00,1.000000,,2013-03-10 04:11:00,
2013-03-09 20:32:00,45.0,34.0,-100.00,NW,308,9.0,13.0,65,0.00,,,0.00,0.000000,,2013-03-10 04:32:00,
2013-03-09 20:42:00,45.0,34.0,-100.00,NW,308,9.0,13.0,65,0.00,,,0.00,0.000000,,2013-03-10 04:42:00,
2013-03-09 20:52:00,45.0,34.0,-100.00,NW,308,9.0,13.0,65,0.00,,,0.00,0.000000,,2013-03-10 04:52:00,
2013-03-09 21:01:00,45.0,34.0,-100.00,NW,308,9.0,13.0,65,0.00,,,0.00,0.000000,,2013-03-10 05:01:00,
2013-03-09 21:11:00,45.0,34.0,-100.00,NW,308,9.0,13.0,65,0.00,,,0.00,0.000000,,2013-03-10 05:11:00,
2013-03-09 21:32:00,44.0,33.0,-100.00,WNW,301,7.0,10.0,64,0.00,,,0.00,0.000000,,2013-03-10 05:32:00,
2013-03-09 21:42:00,44.0,33.0,-100.00,WNW,301,7.0,10.0,64,0.00,,,0.00,0.000000,,2013-03-10 05:42:00,
2013-03-09 21:52:00,44.0,33.0,-100.00,WNW,301,7.0,10.0,64,0.00,,,0.00,0.000000,,2013-03-10 05:52:00,
2013-03-09 22:01:00,44.0,33.0,-100.00,WNW,301,7.0,10.0,64,0.00,,,0.00,0.000000,,2013-03-10 06:01:00,
2013-03-09 22:11:00,44.0,33.0,-100.00,WNW,301,7.0,10.0,64,0.00,,,0.00,0.000000,,2013-03-10 06:11:00,
2013-03-09 22:32:00,45.0,34.0,-100.00,WNW,286,4.0,10.0,66,0.00,,,0.00,0.000000,,2013-03-10 06:32:00,
2013-03-09 22:42:00,45.0,34.0,-100.00,WNW,286,4.0,10.0,66,0.00,,,0.00,0.000000,,2013-03-10 06:42:00,
2013-03-09 22:52:00,45.0,34.0,-100.00,WNW,286,4.0,10.0,66,0.00,,,0.00,0.000000,,2013-03-10 06:52:00,
2013-03-09 23:01:00,45.0,34.0,-100.00,WNW,286,4.0,10.0,66,0.00,,,0.00,0.000000,,2013-03-10 07:01:00,
2013-03-09 23:11:00,45.0,34.0,-100.00,WNW,286,4.0,10.0,66,0.00,,,0.00,0.000000,,2013-03-10 07:11:00,
2013-03-09 23:32:00,42.0,34.0,-100.00,SE,132,5.0,6.0,73,-99.99,,,0.00,0.000000,,2013-03-10 07:32:00,
2013-03-09 23:42:00,42.0,34.0,-100.00,SE,132,5.0,6.0,73,-99.99,,,0.00,0.000000,,2013-03-10 07:42:00,
2013-03-09 23:52:00,42.0,34.0,-100.00,SE,132,5.0,6.0,73,-99.99,,,0.00,0.000000,,2013-03-10 07:52:00,